Time;durP1;ratioP1;P1;durP2;ratioP2;P2;SDS_P1;SDS_P2;PMS_P1;PMS_P2;Temp;Humidity;BMP_temperature;BMP_pressure;BME280_temperature;BME280_humidity;BME280_pressure;Samples;Min_cycle;Max_cycle;Signal;HPM_P1;HPM_P2
2021/03/14 00:01:09;;;;;;;2.60;1.20;;;;;;;6.58;41.78;99791.19;5079872;28;20070;-78
2021/03/14 00:03:37;;;;;;;1.80;0.95;;;;;;;6.57;42.04;99788.66;5090809;28;20119;-78
2021/03/14 00:06:05;;;;;;;1.92;1.00;;;;;;;6.56;42.04;99793.22;5086879;28;20048;-78
2021/03/14 00:08:34;;;;;;;1.75;0.93;;;;;;;6.56;41.87;99790.50;5074886;28;20109;-78
2021/03/14 00:11:04;;;;;;;1.77;1.08;;;;;;;6.55;42.01;99794.22;5063793;28;20460;-78
2021/03/14 00:13:33;;;;;;;1.55;0.90;;;;;;;6.54;41.72;99797.06;5055058;28;20049;-77
2021/03/14 00:16:01;;;;;;;2.90;1.10;;;;;;;6.52;42.12;99810.75;5054976;28;20049;-78
2021/03/14 00:18:30;;;;;;;2.90;1.10;;;;;;;6.50;41.91;99807.31;5090336;28;20040;-78
2021/03/14 00:20:59;;;;;;;2.53;1.10;;;;;;;6.50;41.58;99820.88;5076080;28;20479;-78
2021/03/14 00:23:27;;;;;;;1.48;0.90;;;;;;;6.48;41.80;99817.47;5104644;28;20040;-78
2021/03/14 00:25:56;;;;;;;2.55;1.00;;;;;;;6.49;41.91;99829.19;5080100;28;20509;-78
2021/03/14 00:28:24;;;;;;;3.90;1.15;;;;;;;6.47;42.01;99828.47;5078317;28;20135;-78
2021/03/14 00:30:53;;;;;;;2.80;1.33;;;;;;;6.46;42.13;99832.16;5094350;28;20040;-79
2021/03/14 00:33:20;;;;;;;2.38;1.10;;;;;;;6.45;42.14;99830.44;5084632;28;20040;-78
2021/03/14 00:35:48;;;;;;;2.97;1.10;;;;;;;6.44;42.15;99848.59;5085451;28;20040;-78
2021/03/14 00:38:16;;;;;;;3.72;1.20;;;;;;;6.44;42.15;99854.03;5090228;28;20443;-78
2021/03/14 00:40:43;;;;;;;2.38;1.40;;;;;;;6.42;42.00;99850.56;5077738;28;20059;-79
2021/03/14 00:43:14;;;;;;;3.47;1.30;;;;;;;6.43;42.11;99863.16;5088922;28;20088;-78
2021/03/14 00:45:42;;;;;;;2.72;1.40;;;;;;;6.41;42.04;99854.31;5096253;28;20054;-78
2021/03/14 00:48:30;;;;;;;4.07;1.73;;;;;;;6.41;42.02;99864.31;5094857;28;20036;-79
2021/03/14 00:50:58;;;;;;;3.85;1.70;;;;;;;6.41;42.01;99875.19;5089811;28;20419;-79
2021/03/14 00:53:34;;;;;;;4.07;1.60;;;;;;;6.41;41.68;99880.59;5077592;28;20446;-78
2021/03/14 00:56:05;;;;;;;4.35;1.48;;;;;;;6.40;42.18;99884.31;5077683;28;20094;-78
2021/03/14 00:58:34;;;;;;;3.72;1.63;;;;;;;6.39;42.16;99886.16;5096321;28;20043;-78
2021/03/14 01:01:02;;;;;;;4.15;1.45;;;;;;;6.37;42.19;99899.00;5089880;28;20032;-79
2021/03/14 01:03:32;;;;;;;3.35;1.30;;;;;;;6.35;41.87;99898.25;5078238;28;20036;-78
2021/03/14 01:06:00;;;;;;;2.35;1.30;;;;;;;6.34;41.98;99891.97;5076991;28;20059;-79
2021/03/14 01:08:28;;;;;;;2.92;1.35;;;;;;;6.34;42.00;99904.69;5078055;28;20052;-78
2021/03/14 01:10:55;;;;;;;5.82;1.70;;;;;;;6.29;42.02;99896.94;5086002;28;20062;-78
2021/03/14 01:13:44;;;;;;;2.85;1.40;;;;;;;6.32;42.36;99914.84;5108000;28;20110;-78
2021/03/14 01:16:13;;;;;;;3.17;1.27;;;;;;;6.30;41.97;99912.25;5059448;28;20048;-78
2021/03/14 01:18:51;;;;;;;3.50;1.42;;;;;;;6.29;42.20;99915.09;5081651;28;20055;-78
2021/03/14 01:21:18;;;;;;;3.80;1.40;;;;;;;6.30;42.10;99916.81;5091797;28;20082;-78
2021/03/14 01:23:46;;;;;;;3.83;1.50;;;;;;;6.30;42.27;99922.25;5087747;28;20043;-78
2021/03/14 01:26:13;;;;;;;2.63;1.40;;;;;;;6.29;42.17;99920.50;5094268;28;20048;-78
2021/03/14 01:28:40;;;;;;;3.17;1.30;;;;;;;6.30;42.27;99923.09;5067802;28;20039;-78
2021/03/14 01:31:09;;;;;;;2.90;1.30;;;;;;;6.30;42.29;99927.66;5089147;28;20139;-79
2021/03/14 01:33:37;;;;;;;4.00;1.73;;;;;;;6.29;42.42;99928.66;5087661;28;20063;-78
2021/03/14 01:36:05;;;;;;;3.20;1.50;;;;;;;6.29;42.41;99936.81;5080604;28;20040;-78
2021/03/14 01:38:32;;;;;;;2.72;1.42;;;;;;;6.28;42.37;99935.94;5075040;28;20050;-78
2021/03/14 01:41:00;;;;;;;2.85;1.50;;;;;;;6.28;42.17;99937.78;5072103;28;20138;-78
2021/03/14 01:43:29;;;;;;;4.78;1.40;;;;;;;6.30;42.38;99938.53;5076958;28;20044;-78
2021/03/14 01:45:57;;;;;;;4.80;1.50;;;;;;;6.28;42.31;99943.22;5098002;28;20032;-78
2021/03/14 01:48:26;;;;;;;3.75;1.50;;;;;;;6.30;42.55;99952.13;5059821;28;20050;-79
2021/03/14 01:50:54;;;;;;;2.78;1.40;;;;;;;6.28;42.38;99954.09;5093939;28;20047;-78
2021/03/14 01:53:21;;;;;;;3.47;1.17;;;;;;;6.29;42.24;99947.69;5102777;28;20075;-78
2021/03/14 01:55:49;;;;;;;4.03;1.30;;;;;;;6.28;42.39;99952.25;5090338;28;20040;-78
2021/03/14 01:58:18;;;;;;;2.72;1.20;;;;;;;6.28;42.19;99956.81;5056882;28;20120;-78
2021/03/14 02:00:46;;;;;;;3.40;1.10;;;;;;;6.28;42.45;99956.81;5057221;28;20094;-78
2021/03/14 02:03:14;;;;;;;2.65;1.10;;;;;;;6.25;42.40;99963.34;5093625;28;20040;-78
2021/03/14 02:05:43;;;;;;;4.95;1.40;;;;;;;6.27;42.43;99958.66;5077249;28;20051;-79
2021/03/14 02:08:11;;;;;;;3.00;1.17;;;;;;;6.24;42.40;99963.50;5093422;28;20044;-78
2021/03/14 02:10:38;;;;;;;4.80;1.20;;;;;;;6.25;42.48;99960.63;5093135;28;20032;-78
2021/03/14 02:13:10;;;;;;;3.67;0.95;;;;;;;6.26;42.49;99972.34;5093075;28;20215;-79
2021/03/14 02:15:42;;;;;;;2.47;1.10;;;;;;;6.25;42.69;99976.09;5064225;28;20455;-78
2021/03/14 02:18:11;;;;;;;3.03;1.05;;;;;;;6.23;42.40;99978.06;5068640;28;20052;-78
2021/03/14 02:20:40;;;;;;;3.47;1.00;;;;;;;6.24;42.38;99977.94;5058611;28;20044;-78
2021/03/14 02:23:18;;;;;;;3.15;1.10;;;;;;;6.27;42.56;99983.09;5101639;28;20044;-78
2021/03/14 02:25:48;;;;;;;2.92;1.17;;;;;;;6.24;42.37;99983.38;5090642;28;20114;-79
2021/03/14 02:28:18;;;;;;;3.38;1.08;;;;;;;6.24;42.44;99982.50;5082406;28;20048;-78
2021/03/14 02:30:46;;;;;;;2.35;1.13;;;;;;;6.22;42.28;99985.34;5089223;28;20640;-78
2021/03/14 02:33:16;;;;;;;2.80;1.10;;;;;;;6.24;42.43;99975.22;5086367;28;20036;-78
2021/03/14 02:35:46;;;;;;;2.55;1.10;;;;;;;6.24;42.58;99988.81;5074064;28;20040;-78
2021/03/14 02:38:14;;;;;;;3.53;1.00;;;;;;;6.25;42.47;99989.66;5078047;28;20044;-79
2021/03/14 02:40:45;;;;;;;2.55;1.00;;;;;;;6.25;42.49;99998.66;5080934;28;20036;-79
2021/03/14 02:43:12;;;;;;;2.88;1.08;;;;;;;6.25;42.65;99989.66;5091978;28;20040;-79
2021/03/14 02:45:43;;;;;;;3.22;1.15;;;;;;;6.26;42.21;99997.66;5055403;28;20041;-79
2021/03/14 02:48:12;;;;;;;3.22;1.30;;;;;;;6.26;42.54;99996.81;5086952;28;20046;-78
2021/03/14 02:50:40;;;;;;;2.53;1.00;;;;;;;6.26;42.54;99999.50;5074915;28;20403;-78
2021/03/14 02:53:08;;;;;;;4.35;1.08;;;;;;;6.26;42.69;100004.94;5091946;28;20483;-79
2021/03/14 02:55:35;;;;;;;4.53;1.20;;;;;;;6.26;42.57;100019.41;5078624;28;20403;-79
2021/03/14 02:58:05;;;;;;;4.75;1.60;;;;;;;6.26;42.55;100013.97;5090159;28;20040;-79
2021/03/14 03:00:34;;;;;;;2.17;1.05;;;;;;;6.26;42.51;100013.09;5092912;28;20040;-79
2021/03/14 03:03:05;;;;;;;2.65;1.10;;;;;;;6.27;42.63;100018.41;5077442;28;20044;-78
2021/03/14 03:05:34;;;;;;;3.90;1.30;;;;;;;6.25;42.33;100022.25;5093468;28;20105;-79
2021/03/14 03:08:03;;;;;;;6.82;1.50;;;;;;;6.25;42.40;100022.25;5071897;28;20039;-78
2021/03/14 03:10:34;;;;;;;2.65;0.95;;;;;;;6.26;42.50;100023.97;5081173;28;20119;-78
2021/03/14 03:13:03;;;;;;;2.60;0.80;;;;;;;6.25;42.61;100042.09;5071682;28;20048;-78
2021/03/14 03:15:30;;;;;;;4.38;1.02;;;;;;;6.26;42.56;100042.97;5084960;28;20070;-78
2021/03/14 03:18:00;;;;;;;3.30;1.13;;;;;;;6.26;42.64;100042.97;5073670;28;20582;-78
2021/03/14 03:20:29;;;;;;;4.57;1.30;;;;;;;6.27;42.68;100047.41;5091839;28;20032;-78
2021/03/14 03:22:58;;;;;;;2.63;1.08;;;;;;;6.23;42.31;100052.25;5072799;28;20110;-79
2021/03/14 03:25:27;;;;;;;2.65;1.10;;;;;;;6.24;42.51;100055.84;5097602;28;20070;-78
2021/03/14 03:27:54;;;;;;;3.28;1.17;;;;;;;6.23;42.59;100062.25;5067099;28;20487;-78
2021/03/14 03:30:25;;;;;;;1.95;0.90;;;;;;;6.24;42.58;100067.56;5074571;28;20042;-78
2021/03/14 03:32:53;;;;;;;4.25;1.25;;;;;;;6.22;42.56;100074.09;5074523;28;20063;-78
2021/03/14 03:35:22;;;;;;;1.98;1.00;;;;;;;6.21;42.41;100073.22;5091419;28;20067;-78
2021/03/14 03:37:50;;;;;;;3.38;1.10;;;;;;;6.21;42.78;100080.50;5103894;28;20040;-79
2021/03/14 03:40:21;;;;;;;2.47;1.00;;;;;;;6.20;42.54;100076.06;5074657;28;20390;-79
2021/03/14 03:42:59;;;;;;;2.35;1.20;;;;;;;6.21;42.78;100083.22;5074878;28;20067;-78
2021/03/14 03:45:29;;;;;;;4.40;1.15;;;;;;;6.19;42.43;100096.06;5074914;28;20062;-79
2021/03/14 03:47:58;;;;;;;3.75;1.08;;;;;;;6.19;42.41;100094.22;5083926;28;20044;-78
2021/03/14 03:50:46;;;;;;;3.13;1.30;;;;;;;6.15;42.55;100092.75;5071388;28;20064;-78
2021/03/14 03:53:17;;;;;;;3.35;1.20;;;;;;;6.16;42.53;100097.19;5078675;28;20048;-78
2021/03/14 03:55:46;;;;;;;3.95;1.40;;;;;;;6.14;42.48;100101.00;5076987;28;20032;-78
2021/03/14 03:58:14;;;;;;;3.35;1.20;;;;;;;6.14;42.50;100106.44;5078700;28;20506;-78
2021/03/14 04:00:42;;;;;;;3.00;0.90;;;;;;;6.14;42.53;100106.44;5096670;28;20544;-78
2021/03/14 04:03:10;;;;;;;5.50;1.30;;;;;;;6.14;42.43;100111.88;5086408;28;20041;-77
2021/03/14 04:05:40;;;;;;;2.90;1.20;;;;;;;6.13;42.29;100110.13;5083872;28;20047;-78
2021/03/14 04:08:07;;;;;;;2.67;1.25;;;;;;;6.11;42.37;100115.69;5093055;28;20126;-78
2021/03/14 04:10:36;;;;;;;4.10;1.27;;;;;;;6.13;42.64;100112.84;5096451;28;20038;-78
2021/03/14 04:13:07;;;;;;;3.92;1.40;;;;;;;6.13;42.56;100119.16;5084038;28;20821;-77
2021/03/14 04:15:36;;;;;;;4.68;1.40;;;;;;;6.11;42.62;100120.25;5079097;28;20078;-78
2021/03/14 04:18:04;;;;;;;4.00;1.02;;;;;;;6.10;42.45;100130.25;5078811;28;20036;-78
2021/03/14 04:20:34;;;;;;;3.10;1.13;;;;;;;6.12;42.51;100138.28;5094690;28;20047;-78
2021/03/14 04:23:06;;;;;;;3.67;1.20;;;;;;;6.10;42.54;100135.66;5085810;28;20127;-77
2021/03/14 04:25:36;;;;;;;3.47;1.20;;;;;;;6.11;42.52;100145.56;5078563;28;20131;-77
2021/03/14 04:28:06;;;;;;;4.10;1.25;;;;;;;6.10;42.45;100160.09;5107929;28;20101;-78
2021/03/14 04:30:34;;;;;;;4.10;1.17;;;;;;;6.08;42.28;100161.25;5076783;28;20059;-78
2021/03/14 04:33:03;;;;;;;5.20;1.13;;;;;;;6.09;42.53;100157.53;5095568;28;20032;-77
2021/03/14 04:35:31;;;;;;;2.72;1.40;;;;;;;6.06;42.65;100165.91;5088033;28;20043;-77
2021/03/14 04:37:58;;;;;;;3.00;1.13;;;;;;;6.05;42.44;100165.06;5095473;28;20039;-78
2021/03/14 04:40:27;;;;;;;3.78;1.20;;;;;;;6.06;42.65;100171.34;5081613;28;20044;-78
2021/03/14 04:42:58;;;;;;;3.15;1.20;;;;;;;6.04;42.54;100165.16;5094177;28;20051;-78
2021/03/14 04:45:26;;;;;;;4.57;1.48;;;;;;;6.02;42.49;100168.00;5094725;28;20066;-77
2021/03/14 04:47:53;;;;;;;2.63;1.40;;;;;;;6.02;42.54;100178.84;5095981;28;20047;-78
2021/03/14 04:50:23;;;;;;;4.75;1.50;;;;;;;6.01;42.49;100176.28;5065674;28;20045;-77
2021/03/14 04:52:53;;;;;;;3.78;1.40;;;;;;;6.03;42.92;100179.72;5092596;28;20067;-77
2021/03/14 04:55:29;;;;;;;5.13;1.50;;;;;;;6.01;42.69;100198.00;5091876;28;20050;-78
2021/03/14 04:57:58;;;;;;;3.58;1.40;;;;;;;5.98;42.62;100189.09;5084900;28;20106;-78
2021/03/14 05:00:29;;;;;;;4.10;1.40;;;;;;;5.97;42.70;100190.09;5085894;28;20047;-78
2021/03/14 05:02:59;;;;;;;4.97;1.23;;;;;;;6.00;42.83;100194.44;5096029;28;20123;-78
2021/03/14 05:05:28;;;;;;;3.83;1.25;;;;;;;5.99;42.66;100195.41;5077911;28;20384;-78
2021/03/14 05:07:56;;;;;;;5.03;1.42;;;;;;;5.98;42.79;100199.97;5096067;28;20452;-78
2021/03/14 05:10:26;;;;;;;3.90;1.30;;;;;;;5.98;42.81;100199.97;5075142;28;20130;-77
2021/03/14 05:12:54;;;;;;;3.22;1.27;;;;;;;5.96;42.68;100201.06;5083857;28;20124;-78
2021/03/14 05:15:22;;;;;;;4.28;1.52;;;;;;;5.95;42.94;100204.75;5082135;28;20067;-78
2021/03/14 05:17:50;;;;;;;4.80;1.40;;;;;;;5.93;42.64;100206.72;5073777;28;20036;-78
2021/03/14 05:20:20;;;;;;;3.70;1.45;;;;;;;5.93;42.83;100212.16;5082763;28;20048;-77
2021/03/14 05:22:50;;;;;;;4.30;1.83;;;;;;;5.91;42.72;100212.28;5071159;28;20078;-77
2021/03/14 05:25:19;;;;;;;4.07;1.50;;;;;;;5.91;42.85;100219.56;5056904;28;20049;-77
2021/03/14 05:27:50;;;;;;;5.75;1.55;;;;;;;5.90;42.70;100215.97;5084465;28;20502;-78
2021/03/14 05:30:20;;;;;;;5.03;1.63;;;;;;;5.91;42.96;100227.72;5093567;28;20062;-77
2021/03/14 05:32:49;;;;;;;4.95;1.27;;;;;;;5.89;42.71;100233.25;5095853;28;20105;-78
2021/03/14 05:35:17;;;;;;;5.25;1.60;;;;;;;5.86;42.80;100229.88;5094843;28;20533;-77
2021/03/14 05:37:45;;;;;;;5.68;1.48;;;;;;;5.86;42.63;100241.63;5076740;28;20044;-77
2021/03/14 05:40:14;;;;;;;4.18;1.40;;;;;;;5.86;42.70;100244.31;5093991;28;20036;-77
2021/03/14 05:42:42;;;;;;;3.45;1.50;;;;;;;5.85;42.69;100248.03;5094430;28;20048;-77
2021/03/14 05:45:11;;;;;;;4.25;1.63;;;;;;;5.84;42.85;100249.00;5090476;28;20534;-77
2021/03/14 05:47:39;;;;;;;4.10;1.35;;;;;;;5.84;42.69;100251.72;5076766;28;20074;-77
2021/03/14 05:50:11;;;;;;;4.67;1.60;;;;;;;5.84;43.11;100265.28;5075728;28;20047;-77
2021/03/14 05:52:40;;;;;;;4.43;1.35;;;;;;;5.83;42.90;100268.16;5094870;28;20445;-76
2021/03/14 05:55:08;;;;;;;4.20;1.38;;;;;;;5.83;42.80;100269.00;5074959;28;20045;-76
2021/03/14 05:57:37;;;;;;;3.60;1.40;;;;;;;5.85;42.94;100272.44;5071948;28;20086;-78
2021/03/14 06:00:05;;;;;;;2.97;1.48;;;;;;;5.85;42.96;100275.16;5078068;28;20039;-77
2021/03/14 06:02:34;;;;;;;2.80;1.23;;;;;;;5.84;42.80;100276.16;5094450;28;20064;-77
2021/03/14 06:05:01;;;;;;;2.88;1.30;;;;;;;5.84;42.72;100276.16;5095129;28;20036;-77
2021/03/14 06:07:29;;;;;;;5.00;1.50;;;;;;;5.85;43.05;100285.16;5093538;28;20110;-77
2021/03/14 06:09:56;;;;;;;3.78;1.20;;;;;;;5.85;43.02;100287.88;5056284;28;20055;-77
2021/03/14 06:12:24;;;;;;;3.20;1.30;;;;;;;5.86;43.09;100295.03;5085370;28;20046;-77
2021/03/14 06:14:51;;;;;;;3.72;1.40;;;;;;;5.86;43.10;100300.47;5076649;28;20059;-77
2021/03/14 06:17:19;;;;;;;4.93;1.50;;;;;;;5.87;43.00;100296.78;5094544;28;20044;-77
2021/03/14 06:19:47;;;;;;;4.93;1.50;;;;;;;5.87;42.76;100303.06;5093205;28;20440;-77
2021/03/14 06:22:18;;;;;;;4.38;1.52;;;;;;;5.90;42.67;100316.41;5076004;28;20119;-76
2021/03/14 06:24:47;;;;;;;4.75;1.50;;;;;;;5.88;42.77;100315.66;5077017;28;20551;-77
2021/03/14 06:27:32;;;;;;;4.03;1.40;;;;;;;5.90;42.94;100311.00;5056746;28;20036;-76
2021/03/14 06:30:00;;;;;;;4.97;1.60;;;;;;;5.87;43.03;100311.22;5069938;28;20089;-77
2021/03/14 06:32:28;;;;;;;4.85;1.40;;;;;;;5.88;42.76;100312.94;5075537;28;20119;-76
2021/03/14 06:35:18;;;;;;;3.90;1.40;;;;;;;5.88;42.93;100325.66;5071975;28;20466;-76
2021/03/14 06:37:46;;;;;;;4.88;1.40;;;;;;;5.85;42.74;100328.59;5073080;28;20562;-77
2021/03/14 06:40:18;;;;;;;3.53;1.63;;;;;;;5.87;42.81;100337.50;5062566;28;20094;-77
2021/03/14 06:42:45;;;;;;;6.38;2.10;;;;;;;5.86;42.95;100338.47;5079840;28;20067;-77
2021/03/14 06:45:14;;;;;;;5.28;1.60;;;;;;;5.86;42.94;100336.63;5083688;28;20149;-76
2021/03/14 06:47:44;;;;;;;4.88;1.52;;;;;;;5.87;42.94;100340.19;5073131;28;20139;-77
2021/03/14 06:50:18;;;;;;;4.57;1.80;;;;;;;5.85;42.86;100345.75;5069133;28;20431;-78
2021/03/14 06:53:10;;;;;;;2.97;1.38;;;;;;;5.85;43.08;100353.00;5091533;28;20039;-78
2021/03/14 06:55:40;;;;;;;3.28;1.30;;;;;;;5.84;43.15;100354.03;5084597;28;20050;-77
2021/03/14 06:58:27;;;;;;;6.63;1.65;;;;;;;5.84;43.09;100360.28;5075691;28;20067;-77
2021/03/14 07:01:21;;;;;;;5.65;1.60;;;;;;;5.81;43.29;100370.53;5071088;28;20040;-77
2021/03/14 07:03:50;;;;;;;6.38;2.22;;;;;;;5.81;43.09;100374.09;5042533;28;20490;-78
2021/03/14 07:06:21;;;;;;;4.65;1.70;;;;;;;5.83;43.04;100374.88;5039093;28;20492;-77
2021/03/14 07:08:50;;;;;;;4.70;1.80;;;;;;;5.84;42.89;100386.59;5091659;28;20040;-77
2021/03/14 07:11:36;;;;;;;4.63;1.70;;;;;;;5.83;43.38;100387.56;5079374;28;20057;-78
2021/03/14 07:14:05;;;;;;;5.65;1.67;;;;;;;5.82;42.91;100389.41;5077773;28;20044;-77
2021/03/14 07:16:46;;;;;;;6.85;2.10;;;;;;;5.84;43.24;100394.75;5086726;28;20395;-77
2021/03/14 07:19:16;;;;;;;4.65;1.60;;;;;;;5.81;43.02;100393.09;5083815;28;20048;-77
2021/03/14 07:21:44;;;;;;;5.50;1.52;;;;;;;5.81;42.92;100393.09;5092129;28;20498;-77
2021/03/14 07:24:13;;;;;;;4.25;1.40;;;;;;;5.84;43.02;100397.44;5082971;28;20578;-77
2021/03/14 07:26:44;;;;;;;4.68;1.67;;;;;;;5.84;43.26;100408.31;5062580;28;20074;-77
2021/03/14 07:29:11;;;;;;;5.05;1.60;;;;;;;5.84;43.17;100408.31;5074345;28;20048;-77
2021/03/14 07:31:39;;;;;;;4.30;1.70;;;;;;;5.85;43.31;100410.88;5092146;28;20055;-77
2021/03/14 07:34:07;;;;;;;4.40;1.30;;;;;;;5.88;43.39;100428.81;5075307;28;20048;-76
2021/03/14 07:36:34;;;;;;;3.78;1.50;;;;;;;5.90;43.41;100429.56;5074736;28;20036;-77
2021/03/14 07:39:06;;;;;;;4.53;1.58;;;;;;;5.90;43.56;100426.84;5079397;28;20040;-77
2021/03/14 07:41:33;;;;;;;6.80;1.60;;;;;;;5.93;43.33;100448.31;5084326;28;20045;-77
2021/03/14 07:44:02;;;;;;;4.40;1.45;;;;;;;5.95;43.52;100443.66;5072153;28;20047;-76
2021/03/14 07:46:31;;;;;;;4.90;1.48;;;;;;;5.95;43.54;100449.94;5091640;28;20530;-74
2021/03/14 07:49:00;;;;;;;4.43;1.38;;;;;;;5.97;43.58;100453.44;5073135;28;20036;-74
2021/03/14 07:51:30;;;;;;;3.45;1.15;;;;;;;5.98;43.52;100451.59;5090881;28;20513;-74
2021/03/14 07:54:04;;;;;;;3.88;1.40;;;;;;;6.01;43.88;100450.50;5100035;28;20067;-74
2021/03/14 07:56:35;;;;;;;5.88;1.70;;;;;;;6.00;43.79;100459.63;5090572;28;20043;-74
2021/03/14 07:59:03;;;;;;;4.50;1.48;;;;;;;6.01;43.56;100461.38;5089988;28;20095;-74
2021/03/14 08:01:32;;;;;;;3.88;1.25;;;;;;;5.99;43.61;100469.63;5071856;28;20094;-74
2021/03/14 08:04:00;;;;;;;4.85;1.40;;;;;;;6.02;43.84;100473.94;5091911;28;20063;-74
2021/03/14 08:06:51;;;;;;;3.92;1.55;;;;;;;6.02;44.43;100469.38;5092644;28;20093;-74
2021/03/14 08:09:44;;;;;;;3.53;1.38;;;;;;;6.00;44.71;100470.47;5072958;28;20383;-75
2021/03/14 08:12:17;;;;;;;4.70;1.50;;;;;;;5.98;44.05;100476.88;5080602;28;20123;-76
2021/03/14 08:14:46;;;;;;;;;;;;;;;5.75;44.63;100482.25;5073855;28;20032;-76
2021/03/14 08:17:14;;;;;;;4.07;1.77;;;;;;;5.92;44.02;100487.34;5073574;28;20367;-75
2021/03/14 08:19:44;;;;;;;6.65;1.67;;;;;;;5.94;43.73;100483.50;5078130;28;20093;-76
2021/03/14 08:22:45;;;;;;;4.38;1.60;;;;;;;5.96;44.48;100484.28;5100794;28;20047;-76
2021/03/14 08:25:23;;;;;;;5.90;1.83;;;;;;;5.92;44.01;100496.31;5092899;28;20032;-76
2021/03/14 08:27:52;;;;;;;4.47;1.88;;;;;;;5.92;44.16;100488.16;5092464;28;20043;-76
2021/03/14 08:30:46;;;;;;;5.82;1.92;;;;;;;5.93;45.08;100491.75;5074225;28;20102;-76
2021/03/14 08:33:23;;;;;;;5.45;1.70;;;;;;;5.93;45.45;100505.31;5091187;28;20483;-76
2021/03/14 08:35:57;;;;;;;5.90;2.03;;;;;;;5.91;44.79;100510.91;5091375;28;20048;-77
2021/03/14 08:38:36;;;;;;;4.50;1.95;;;;;;;5.94;44.64;100507.06;5091532;28;20040;-77
2021/03/14 08:41:37;;;;;;;4.32;2.20;;;;;;;5.91;45.38;100501.88;5070645;28;20050;-76
2021/03/14 08:44:13;;;;;;;5.63;1.88;;;;;;;5.94;44.54;100512.50;5067897;28;20145;-77
2021/03/14 08:47:01;;;;;;;5.07;2.13;;;;;;;5.97;44.96;100515.88;5078389;28;20510;-76
2021/03/14 08:49:32;;;;;;;5.95;2.55;;;;;;;5.96;44.62;100521.41;5060825;28;20040;-77
2021/03/14 08:52:00;;;;;;;6.18;2.20;;;;;;;6.00;44.78;100528.38;5091356;28;20123;-77
2021/03/14 08:54:48;;;;;;;6.85;2.10;;;;;;;6.02;45.00;100534.53;5071326;28;20117;-77
2021/03/14 08:57:19;;;;;;;4.50;2.10;;;;;;;6.03;44.83;100528.13;5094726;28;20406;-77
2021/03/14 08:59:50;;;;;;;4.00;1.85;;;;;;;6.07;44.92;100543.22;5076938;28;20376;-78
2021/03/14 09:02:24;;;;;;;6.35;2.00;;;;;;;6.10;45.66;100543.00;5057767;28;20052;-78
2021/03/14 09:04:55;;;;;;;5.45;2.00;;;;;;;6.12;45.12;100545.59;5081648;28;20058;-77
2021/03/14 09:07:51;;;;;;;5.53;2.10;;;;;;;6.13;45.62;100550.94;5054010;28;20040;-77
2021/03/14 09:10:21;;;;;;;4.80;2.20;;;;;;;6.11;45.24;100558.31;5053302;28;20122;-78
2021/03/14 09:13:13;;;;;;;4.82;1.80;;;;;;;6.14;44.95;100555.38;5067090;28;20131;-78
2021/03/14 09:16:12;;;;;;;4.43;1.83;;;;;;;6.19;45.75;100561.34;5069321;28;20054;-78
2021/03/14 09:19:19;;;;;;;3.65;1.60;;;;;;;6.18;44.97;100565.03;5055813;28;20076;-77
2021/03/14 09:21:55;;;;;;;6.97;2.17;;;;;;;6.21;45.34;100566.66;5091351;28;20047;-77
2021/03/14 09:24:27;;;;;;;3.90;1.90;;;;;;;6.26;45.38;100572.63;5084951;28;20390;-77
2021/03/14 09:26:57;;;;;;;5.68;1.90;;;;;;;6.24;45.39;100578.19;5073292;28;20091;-78
2021/03/14 09:29:41;;;;;;;5.07;1.80;;;;;;;6.29;45.92;100581.41;5057139;28;20064;-78
2021/03/14 09:32:33;;;;;;;6.85;1.98;;;;;;;6.28;46.07;100582.41;5086291;28;20040;-80
2021/03/14 09:35:24;;;;;;;5.18;1.95;;;;;;;6.30;46.00;100585.88;5093311;28;20043;-77
2021/03/14 09:37:57;;;;;;;4.50;2.00;;;;;;;6.29;45.43;100584.13;5075792;28;20373;-75
2021/03/14 09:40:30;;;;;;;4.45;1.67;;;;;;;6.34;46.00;100587.38;5076115;28;20296;-75
2021/03/14 09:43:16;;;;;;;2.97;1.45;;;;;;;6.38;45.93;100590.75;5070897;28;20032;-75
2021/03/14 09:46:10;;;;;;;5.28;2.10;;;;;;;6.32;45.33;100596.63;5088656;28;20064;-74
2021/03/14 09:48:49;;;;;;;6.68;2.40;;;;;;;6.34;45.52;100587.38;5070475;28;20114;-75
2021/03/14 09:51:18;;;;;;;4.13;1.98;;;;;;;6.36;45.46;100593.56;5072484;28;20032;-75
2021/03/14 09:53:47;;;;;;;6.68;2.30;;;;;;;6.34;45.55;100594.66;5089437;28;20157;-74
2021/03/14 09:56:30;;;;;;;5.15;2.13;;;;;;;6.34;45.40;100589.22;5079931;28;20131;-74
2021/03/14 09:59:24;;;;;;;5.68;2.20;;;;;;;6.34;45.62;100594.66;5089654;28;20028;-74
2021/03/14 10:02:05;;;;;;;3.95;2.50;;;;;;;6.35;46.10;100605.41;5074362;28;20507;-75
2021/03/14 10:04:46;;;;;;;4.82;2.30;;;;;;;6.38;45.87;100617.03;5076852;28;20036;-77
2021/03/14 10:07:22;;;;;;;3.83;2.30;;;;;;;6.43;46.61;100606.69;5073757;28;20040;-75
2021/03/14 10:09:50;;;;;;;4.88;2.22;;;;;;;6.40;45.90;100613.25;5065204;28;20115;-75
2021/03/14 10:12:34;;;;;;;3.72;1.95;;;;;;;6.43;45.85;100620.28;5072592;28;20086;-75
2021/03/14 10:15:02;;;;;;;3.90;2.00;;;;;;;6.43;45.78;100614.84;5064264;28;20072;-76
2021/03/14 10:17:32;;;;;;;3.75;2.13;;;;;;;6.44;45.80;100622.91;5072845;28;20044;-73
2021/03/14 10:20:00;;;;;;;5.57;2.30;;;;;;;6.46;45.84;100629.09;5072838;28;20036;-73
2021/03/14 10:22:30;;;;;;;3.92;2.08;;;;;;;6.48;45.90;100634.41;5090921;28;20044;-73
2021/03/14 10:25:27;;;;;;;5.85;2.40;;;;;;;6.47;45.84;100646.28;5069671;28;20078;-73
2021/03/14 10:28:06;;;;;;;4.63;2.15;;;;;;;6.49;46.46;100647.03;5070736;28;20044;-76
2021/03/14 10:30:43;;;;;;;4.85;2.10;;;;;;;6.48;45.73;100653.44;5071512;28;20044;-78
2021/03/14 10:33:29;;;;;;;3.78;2.20;;;;;;;6.50;46.36;100651.50;5056863;28;20090;-77
2021/03/14 10:36:01;;;;;;;3.78;2.05;;;;;;;6.50;46.00;100648.78;5070799;28;20040;-78
2021/03/14 10:38:39;;;;;;;3.90;2.03;;;;;;;6.50;46.53;100646.91;5101926;28;20119;-76
2021/03/14 10:41:19;;;;;;;4.95;2.13;;;;;;;6.48;45.93;100642.56;5080945;28;20047;-77
2021/03/14 10:43:59;;;;;;;4.03;2.30;;;;;;;6.49;45.96;100647.03;5075979;28;20112;-76
2021/03/14 10:46:35;;;;;;;4.35;2.55;;;;;;;6.51;46.56;100648.63;5059883;28;20048;-75
2021/03/14 10:49:05;;;;;;;5.03;2.88;;;;;;;6.50;46.12;100657.75;5066915;28;20028;-73
2021/03/14 10:51:33;;;;;;;4.00;2.55;;;;;;;6.53;46.08;100667.56;5074288;28;20043;-73
2021/03/14 10:54:10;;;;;;;4.40;2.28;;;;;;;6.55;46.48;100663.75;5070745;28;20060;-74
2021/03/14 10:56:39;;;;;;;6.10;2.90;;;;;;;6.57;46.45;100666.38;5073481;28;20562;-75
2021/03/14 10:59:21;;;;;;;5.05;2.92;;;;;;;6.58;46.81;100666.22;5076180;28;20098;-75
2021/03/14 11:02:15;;;;;;;5.63;2.72;;;;;;;6.62;47.43;100664.16;5089697;28;20045;-75
2021/03/14 11:04:52;;;;;;;3.60;2.40;;;;;;;6.66;47.62;100671.13;5059002;28;20113;-74
2021/03/14 11:07:25;;;;;;;5.30;2.50;;;;;;;6.69;47.52;100669.03;5073618;28;20036;-73
2021/03/14 11:10:08;;;;;;;4.05;2.50;;;;;;;6.73;47.84;100677.84;5073424;28;20036;-74
2021/03/14 11:12:40;;;;;;;5.03;2.70;;;;;;;6.75;47.27;100665.00;5072789;28;20040;-74
2021/03/14 11:15:27;;;;;;;4.85;2.78;;;;;;;6.79;47.26;100674.69;5083463;28;20093;-74
2021/03/14 11:18:24;;;;;;;5.47;2.60;;;;;;;6.84;47.60;100680.63;5083955;28;20039;-73
2021/03/14 11:21:04;;;;;;;3.83;2.45;;;;;;;6.89;47.25;100683.03;5094688;28;20035;-74
2021/03/14 11:23:32;;;;;;;4.47;2.75;;;;;;;6.94;47.16;100689.84;5083882;28;20044;-73
2021/03/14 11:26:01;;;;;;;4.65;2.42;;;;;;;7.00;47.22;100689.41;5093743;28;20403;-73
2021/03/14 11:28:30;;;;;;;4.32;2.60;;;;;;;7.04;47.22;100685.50;5092314;28;20036;-75
2021/03/14 11:30:58;;;;;;;4.07;2.42;;;;;;;7.08;47.01;100687.00;5094823;28;20043;-75
2021/03/14 11:33:29;;;;;;;4.25;2.50;;;;;;;7.12;46.81;100687.66;5076356;28;20047;-75
2021/03/14 11:36:05;;;;;;;4.25;2.22;;;;;;;7.16;47.06;100693.75;5071351;28;20475;-75
2021/03/14 11:38:54;;;;;;;4.18;2.40;;;;;;;7.18;46.90;100681.75;5080831;28;20036;-75
2021/03/14 11:41:35;;;;;;;4.93;2.70;;;;;;;7.25;46.95;100693.03;5078956;28;20040;-76
2021/03/14 11:44:12;;;;;;;5.13;2.88;;;;;;;7.26;47.36;100687.47;5089058;28;20072;-74
2021/03/14 11:46:41;;;;;;;4.78;2.65;;;;;;;7.31;46.87;100693.47;5074661;28;20128;-75
2021/03/14 11:49:22;;;;;;;4.68;2.75;;;;;;;7.35;46.83;100692.25;5060016;28;20044;-75
2021/03/14 11:51:50;;;;;;;3.70;2.70;;;;;;;7.38;46.79;100683.84;5077963;28;20420;-75
2021/03/14 11:54:19;;;;;;;4.70;2.80;;;;;;;7.42;46.57;100679.03;5058480;28;20506;-76
2021/03/14 11:56:58;;;;;;;3.83;2.60;;;;;;;7.43;46.48;100673.47;5094394;28;20036;-75
2021/03/14 11:59:30;;;;;;;3.85;2.65;;;;;;;7.47;46.42;100683.16;5088624;28;20499;-74
2021/03/14 12:02:10;;;;;;;4.35;2.92;;;;;;;7.52;46.44;100681.91;5074912;28;20081;-76